createdAt,value
2023-01-21T00:02:56.738Z,1.26
2023-01-21T00:08:01.812Z,1.21
2023-01-21T00:13:06.822Z,1.19
2023-01-21T00:18:09.699Z,1.28
2023-01-21T00:23:12.940Z,1.36
2023-01-21T00:28:17.019Z,1.39
2023-01-21T00:33:19.780Z,1.31
2023-01-21T00:38:22.505Z,1.31
2023-01-21T00:43:26.669Z,1.28
2023-01-21T00:48:29.457Z,1.26
2023-01-21T00:53:34.793Z,1.32
2023-01-21T00:58:39.341Z,1.31
2023-01-21T01:03:42.679Z,1.32
2023-01-21T01:08:46.217Z,1.27
2023-01-21T01:13:50.324Z,1.25
2023-01-21T01:18:53.452Z,1.21
2023-01-21T01:24:00.525Z,1.12
2023-01-21T01:29:05.648Z,1.11
2023-01-21T01:34:08.491Z,1.12
2023-01-21T01:39:11.296Z,1.15
2023-01-21T01:44:51.668Z,1.21
2023-01-21T01:49:56.215Z,1.12
2023-01-21T01:55:00.982Z,1.06
2023-01-21T02:00:05.928Z,1.02
2023-01-21T02:05:14.524Z,0.99
2023-01-21T02:10:21.361Z,0.97
2023-01-21T02:15:29.332Z,0.99
2023-01-21T02:21:16.574Z,1.05
2023-01-21T02:26:54.856Z,0.98
2023-01-21T02:32:11.909Z,0.96
2023-01-21T02:37:18.772Z,0.94
2023-01-21T02:42:25.846Z,0.89
2023-01-21T02:47:31.445Z,0.78
2023-01-21T02:52:35.662Z,0.77
2023-01-21T02:57:44.707Z,0.81
2023-01-21T03:03:20.112Z,0.82
2023-01-21T03:08:30.348Z,0.80
2023-01-21T03:13:53.082Z,0.84
2023-01-21T03:18:56.772Z,0.79
2023-01-21T03:24:01.101Z,0.72
2023-01-21T03:29:07.544Z,0.83
2023-01-21T03:34:12.875Z,0.85
2023-01-21T03:39:19.718Z,0.70
2023-01-21T03:44:22.601Z,0.70
2023-01-21T03:49:29.761Z,0.74
2023-01-21T03:54:34.015Z,0.73
2023-01-21T03:59:36.755Z,0.72
2023-01-21T04:04:39.584Z,0.73
2023-01-21T04:09:43.895Z,0.77
2023-01-21T04:14:46.646Z,0.76
2023-01-21T04:19:49.396Z,0.63
2023-01-21T04:24:53.464Z,0.65
2023-01-21T04:29:56.185Z,0.69
2023-01-21T04:34:58.864Z,0.73
2023-01-21T04:40:03.206Z,0.70
2023-01-21T04:45:07.236Z,0.64
2023-01-21T04:50:11.525Z,0.59
2023-01-21T04:55:15.664Z,0.53
2023-01-21T05:00:19.366Z,0.56
2023-01-21T05:05:22.188Z,0.50
2023-01-21T05:10:26.385Z,0.46
2023-01-21T05:15:29.305Z,0.40
2023-01-21T05:20:32.225Z,0.45
2023-01-21T05:25:36.349Z,0.51
2023-01-21T05:30:41.027Z,0.52
2023-01-21T05:35:44.516Z,0.52
2023-01-21T05:40:48.691Z,0.50
2023-01-21T05:45:51.419Z,0.41
2023-01-21T05:50:54.912Z,0.45
2023-01-21T05:55:59.920Z,0.42
2023-01-21T06:01:02.650Z,0.42
2023-01-21T06:06:05.937Z,0.47
2023-01-21T06:11:10.061Z,0.51
2023-01-21T06:16:12.861Z,0.52
2023-01-21T06:21:15.578Z,0.52
2023-01-21T06:26:19.754Z,0.53
2023-01-21T06:31:22.576Z,0.54
2023-01-21T06:36:25.508Z,0.60
2023-01-21T06:41:29.641Z,0.56
2023-01-21T06:46:32.404Z,0.58
2023-01-21T06:51:35.149Z,0.48
2023-01-21T06:56:40.987Z,0.56
2023-01-21T07:01:43.705Z,0.68
2023-01-21T07:06:46.435Z,0.64
2023-01-21T07:11:50.644Z,0.67
2023-01-21T07:16:53.559Z,0.66
2023-01-21T07:21:56.322Z,0.68
2023-01-21T07:27:00.366Z,0.75
2023-01-21T07:32:03.226Z,0.78
2023-01-21T07:37:05.947Z,0.80
2023-01-21T07:42:10.790Z,0.70
2023-01-21T07:47:13.529Z,0.67
2023-01-21T07:52:16.227Z,0.63
2023-01-21T07:57:20.443Z,0.67
2023-01-21T08:02:23.472Z,0.72
2023-01-21T08:07:26.251Z,0.85
2023-01-21T08:12:30.412Z,0.88
2023-01-21T08:17:33.106Z,0.82
2023-01-21T08:22:35.792Z,0.73
2023-01-21T08:27:39.865Z,0.82
2023-01-21T08:32:42.606Z,0.92
2023-01-21T08:37:45.370Z,0.97
2023-01-21T08:42:49.473Z,0.97
2023-01-21T08:47:52.176Z,0.99
2023-01-21T08:52:56.081Z,0.97
2023-01-21T08:58:00.827Z,1.04
2023-01-21T09:03:03.848Z,1.08
2023-01-21T09:08:06.726Z,1.20
2023-01-21T09:13:11.912Z,1.22
2023-01-21T09:18:14.654Z,1.28
2023-01-21T09:23:27.600Z,1.34
2023-01-21T09:28:33.069Z,1.45
2023-01-21T09:33:37.645Z,1.49
2023-01-21T09:38:42.648Z,1.61
2023-01-21T09:43:48.995Z,1.61
2023-01-21T09:48:52.008Z,1.65
2023-01-21T09:53:57.211Z,1.68
2023-01-21T09:59:05.409Z,1.74
2023-01-21T10:04:29.304Z,1.77
2023-01-21T10:09:43.503Z,1.81
2023-01-21T10:15:10.271Z,1.84
2023-01-21T10:20:15.666Z,1.89
2023-01-21T10:25:21.321Z,1.95
2023-01-21T10:30:28.848Z,1.98
2023-01-21T10:35:43.578Z,2.05
2023-01-21T10:40:49.991Z,2.08
2023-01-21T10:45:59.041Z,1.98
2023-01-21T10:51:06.155Z,1.98
2023-01-21T10:56:17.331Z,1.93
2023-01-21T11:01:24.277Z,1.88
2023-01-21T11:06:27.301Z,1.93
2023-01-21T11:11:32.142Z,1.93
2023-01-21T11:16:42.907Z,2.01
2023-01-21T11:22:04.035Z,2.01
2023-01-21T11:27:06.755Z,2.01
2023-01-21T11:32:18.453Z,2.06
2023-01-21T11:37:24.466Z,2.05
2023-01-21T11:42:27.755Z,2.16
2023-01-21T11:47:37.973Z,2.13
2023-01-21T11:52:40.837Z,2.08
2023-01-21T11:57:46.999Z,2.14
2023-01-21T12:02:53.147Z,2.18
2023-01-21T12:07:56.668Z,2.38
2023-01-21T12:13:15.597Z,2.53
2023-01-21T12:18:30.039Z,2.29
2023-01-21T12:23:49.132Z,2.24
2023-01-21T12:29:03.505Z,2.21
2023-01-21T12:34:12.782Z,2.28
2023-01-21T12:39:20.973Z,2.34
2023-01-21T12:44:28.846Z,2.37
2023-01-21T12:49:50.031Z,2.46
2023-01-21T12:54:58.783Z,2.42
2023-01-21T13:00:05.340Z,2.45
2023-01-21T13:05:14.180Z,2.49
2023-01-21T13:10:20.606Z,2.48
2023-01-21T13:15:26.440Z,2.47
2023-01-21T13:20:31.752Z,2.36
2023-01-21T13:25:42.197Z,2.35
2023-01-21T13:30:49.527Z,2.33
2023-01-21T13:36:01.379Z,2.26
2023-01-21T13:41:15.070Z,2.21
2023-01-21T13:46:26.950Z,2.30
2023-01-21T13:51:45.093Z,2.39
2023-01-21T13:57:03.790Z,2.47
2023-01-21T14:02:09.889Z,2.53
2023-01-21T14:07:17.576Z,2.48
2023-01-21T14:12:24.122Z,2.44
2023-01-21T14:17:45.704Z,2.43
2023-01-21T14:23:00.966Z,2.36
2023-01-21T14:28:09.985Z,2.25
2023-01-21T14:33:15.853Z,2.22
2023-01-21T14:38:27.543Z,2.21
2023-01-21T14:43:49.170Z,2.19
2023-01-21T14:49:00.137Z,2.17
2023-01-21T14:54:05.799Z,2.19
2023-01-21T14:59:26.232Z,2.11
2023-01-21T15:04:30.419Z,2.00
2023-01-21T15:09:37.198Z,1.95
2023-01-21T15:14:41.772Z,1.85
2023-01-21T15:19:44.634Z,1.75
2023-01-21T15:25:19.081Z,1.67
2023-01-21T15:30:29.735Z,1.68
2023-01-21T15:35:34.681Z,1.64
2023-01-21T15:40:41.362Z,1.64
2023-01-21T15:45:50.819Z,1.55
2023-01-21T15:50:58.029Z,1.51
2023-01-21T15:56:14.633Z,1.35
2023-01-21T16:01:23.437Z,1.25
2023-01-21T16:06:30.735Z,1.29
2023-01-21T16:11:46.212Z,1.28
2023-01-21T16:16:57.222Z,1.19
2023-01-21T16:22:02.214Z,1.13
2023-01-21T16:27:20.179Z,1.16
2023-01-21T16:32:22.970Z,1.14
2023-01-21T16:37:27.152Z,1.16
2023-01-21T16:42:44.247Z,1.18
2023-01-21T16:47:47.932Z,1.16
2023-01-21T16:52:51.093Z,1.13
2023-01-21T16:57:56.758Z,1.07
2023-01-21T17:03:00.508Z,1.13
2023-01-21T17:08:04.972Z,1.12
2023-01-21T17:13:15.847Z,1.03
2023-01-21T17:18:20.943Z,0.94
2023-01-21T17:23:26.602Z,1.02
2023-01-21T17:28:32.794Z,1.08
2023-01-21T17:33:35.628Z,1.15
2023-01-21T17:38:42.875Z,1.14
2023-01-21T17:43:50.036Z,1.12
2023-01-21T17:48:54.841Z,1.15
2023-01-21T17:53:59.875Z,1.13
2023-01-21T17:59:04.629Z,1.07
2023-01-21T18:04:07.320Z,1.07
2023-01-21T18:09:11.419Z,1.03
2023-01-21T18:14:17.353Z,1.02
2023-01-21T18:19:38.625Z,1.12
2023-01-21T18:24:41.431Z,1.09
2023-01-21T18:29:45.733Z,1.17
2023-01-21T18:34:48.567Z,1.20
2023-01-21T18:39:51.354Z,1.21
2023-01-21T18:44:55.385Z,1.21
2023-01-21T18:50:02.832Z,1.24
2023-01-21T18:55:07.129Z,1.18
2023-01-21T19:00:19.152Z,1.22
2023-01-21T19:05:22.522Z,1.27
2023-01-21T19:10:25.301Z,1.17
2023-01-21T19:15:29.837Z,1.24
2023-01-21T19:20:32.645Z,1.18
2023-01-21T19:25:35.364Z,1.21
2023-01-21T19:30:44.932Z,1.27
2023-01-21T19:35:47.800Z,1.34
2023-01-21T19:40:50.747Z,1.32
2023-01-21T19:45:55.780Z,1.31
2023-01-21T19:50:58.640Z,1.25
2023-01-21T19:56:02.567Z,1.28
2023-01-21T20:01:06.703Z,1.30
2023-01-21T20:06:11.306Z,1.30
2023-01-21T20:11:14.048Z,1.38
2023-01-21T20:16:20.884Z,1.36
2023-01-21T20:21:23.757Z,1.21
2023-01-21T20:26:28.483Z,1.20
2023-01-21T20:31:33.027Z,1.18
2023-01-21T20:36:36.823Z,1.14
2023-01-21T20:41:40.826Z,1.26
2023-01-21T20:46:45.753Z,1.15
2023-01-21T20:51:48.543Z,1.20
2023-01-21T20:56:51.306Z,1.20
2023-01-21T21:01:56.038Z,1.20
2023-01-21T21:06:58.819Z,1.22
2023-01-21T21:12:01.711Z,1.22
2023-01-21T21:17:06.779Z,1.19
2023-01-21T21:22:09.715Z,1.20
2023-01-21T21:27:13.390Z,1.20
2023-01-21T21:32:17.647Z,1.21
2023-01-21T21:37:20.407Z,1.24
2023-01-21T21:42:40.808Z,1.25
2023-01-21T21:48:02.614Z,1.20
2023-01-21T21:53:05.451Z,1.26
2023-01-21T21:58:08.190Z,1.25
2023-01-21T22:03:13.807Z,1.20
2023-01-21T22:08:16.635Z,1.17
2023-01-21T22:13:19.445Z,1.24
2023-01-21T22:18:23.635Z,1.33
2023-01-21T22:23:26.319Z,1.34
2023-01-21T22:28:29.384Z,1.33
2023-01-21T22:33:33.763Z,1.32
2023-01-21T22:38:40.307Z,1.27
2023-01-21T22:43:44.729Z,1.28
2023-01-21T22:48:49.133Z,1.29
2023-01-21T22:53:52.080Z,1.31
2023-01-21T22:58:54.979Z,1.27
2023-01-21T23:04:00.031Z,1.30
2023-01-21T23:09:02.847Z,1.28
2023-01-21T23:14:05.572Z,1.26
2023-01-21T23:19:09.604Z,1.33
2023-01-21T23:24:12.416Z,1.31
2023-01-21T23:29:15.068Z,1.33
2023-01-21T23:34:22.599Z,1.31
2023-01-21T23:39:25.475Z,1.36
2023-01-21T23:44:28.194Z,1.35
2023-01-21T23:49:32.592Z,1.35
2023-01-21T23:54:35.386Z,1.31
2023-01-21T23:59:38.194Z,1.31
